Latest Weather Observations for Bradshaw-Koolendong Valley

IDD60801

Issued at 3:21 pm CST Monday 14 October 2019 (issued every 10 minutes, with the page automatically refreshed every 10 minutes)

About weather observations | Map of weather stations | Latest weather observations for NT | Other Formats
Station Details ID: 014981 Name: BRADSHAW - KOOLENDONG VALLEY (DEFENCE) Lat: -15.19 Lon: 130.12 Height: 42.0 m
Data from the previous 72 hours. | See also: Recent months at Bradshaw-Koolendong Valley
Date/Time
CST
Temp
°C
App
Temp
°C
Dew
Point
°C
Rel
Hum
%
Delta-T
°C
Wind Press
QNH
hPa
Press
MSL
hPa
Rain since
9am
mm
Dir  Spd
km/h
Gust
km/h
Spd
kts
Gust
kts
14/03:00pm 40.1 38.3 12.1 19 17.1 NE 13 20 7 11 1011.0 - 0.0
14/02:30pm 38.7 38.8 13.8 22 15.5 WSW 6 11 3 6 1011.4 - 0.0
14/02:00pm 38.2 38.0 14.7 24 14.8 NNW 9 26 5 14 1011.9 - 0.0
14/01:30pm 37.5 37.3 14.7 25 14.3 NNE 9 24 5 13 1012.4 - 0.0
14/01:00pm 37.0 37.3 16.0 28 13.4 NNW 9 24 5 13 1013.2 - 0.0
14/12:30pm 36.7 37.3 16.8 30 12.8 NNE 9 19 5 10 1013.9 - 0.0
14/12:00pm 35.6 37.2 19.1 38 10.9 NW 9 17 5 9 1014.4 - 0.0
14/11:30am 34.4 35.1 18.0 37 10.6 NNW 11 17 6 9 1014.9 - 0.0
14/11:00am 33.2 35.0 20.4 47 8.6 WNW 11 17 6 9 1015.3 - 0.0
14/10:30am 32.0 34.4 21.5 53 7.1 NNW 11 17 6 9 1015.6 - 0.0
14/10:00am 31.8 34.5 21.3 53 7.1 NW 9 17 5 9 1015.8 - 0.0
14/09:30am 30.4 32.3 20.6 55 6.5 NNW 11 19 6 10 1016.0 - 0.0
14/09:00am 29.6 32.7 22.1 64 5.1 NNW 9 17 5 9 1015.8 - 0.0
14/08:30am 28.6 31.6 22.6 70 4.1 NW 11 19 6 10 1015.6 - 0.0
14/08:00am 27.8 30.8 22.7 74 3.5 NNW 11 19 6 10 1015.2 - 0.0
14/07:30am 27.0 30.2 23.0 79 2.7 NNW 11 15 6 8 1014.7 - 0.0
14/07:00am 26.1 30.1 22.8 82 2.2 NW 6 13 3 7 1014.4 - 0.0
14/06:30am 25.8 29.8 22.7 83 2.1 NNW 6 9 3 5 1014.2 - 0.0
14/06:00am 25.7 29.6 22.6 83 2.1 N 6 11 3 6 1013.7 - 0.0
14/05:30am 25.2 29.7 22.3 84 1.9 NNW 2 9 1 5 1013.3 - 0.0
14/05:00am 25.3 29.5 22.4 84 2.0 NNW 4 11 2 6 1013.0 - 0.0
14/04:30am 25.5 29.4 22.6 84 2.0 N 6 9 3 5 1012.9 - 0.0
14/04:00am 25.7 29.7 22.8 84 2.0 N 6 13 3 7 1012.8 - 0.0
14/03:30am 25.6 29.9 22.7 84 2.0 NNW 4 11 2 6 1012.4 - 0.0
14/03:00am 25.9 30.0 22.2 80 2.5 NW 4 7 2 4 1012.1 - 0.0
14/02:30am 26.2 30.2 22.1 78 2.8 NNW 4 13 2 7 1012.4 - 0.0
14/02:00am 26.3 30.5 22.4 79 2.6 NNW 4 6 2 3 1012.6 - 0.0
14/01:30am 26.7 31.1 22.8 79 2.6 NNW 4 11 2 6 1012.6 - 0.0
14/01:00am 27.1 31.2 22.9 78 2.9 NNW 6 11 3 6 1012.9 - 0.0
14/12:30am 27.4 31.4 22.8 76 3.1 NNW 6 15 3 8 1012.9 - 0.0
14/12:00am 28.0 31.0 22.0 70 4.0 NNW 9 20 5 11 1012.9 - 0.0
 
Date/Time
CST
Temp
°C
App
Temp
°C
Dew
Point
°C
Rel
Hum
%
Delta-T
°C
Wind Press
QNH
hPa
Press
MSL
hPa
Rain since
9am
mm
Dir  Spd
km/h
Gust
km/h
Spd
kts
Gust
kts
13/11:30pm 27.7 30.9 20.5 65 4.7 N 4 7 2 4 1012.9 - 0.0
13/11:00pm 27.8 30.7 19.1 59 5.6 NNW 2 6 1 3 1012.7 - 0.0
13/10:30pm 28.4 31.6 18.8 56 6.2 CALM 0 4 0 2 1012.4 - 0.0
13/10:00pm 30.1 32.3 19.5 53 6.9 NNW 7 15 4 8 1012.1 - 0.0
13/09:30pm 30.2 32.4 19.6 53 7.0 NNW 7 15 4 8 1012.0 - 0.0
13/09:00pm 30.6 32.7 19.0 50 7.6 NNW 6 9 3 5 1011.8 - 0.0
13/08:30pm 31.2 32.8 19.2 48 7.9 N 9 19 5 10 1011.3 - 0.0
13/08:00pm 31.3 33.1 19.6 49 7.7 NW 9 17 5 9 1010.8 - 0.0
13/07:30pm 32.3 33.8 20.5 49 7.9 NW 13 22 7 12 1010.2 - 0.0
13/07:00pm 37.0 37.3 16.0 28 13.4 NE 9 17 5 9 1009.4 - 0.0
13/06:30pm 39.2 36.0 0.6 9 19.8 ENE 7 17 4 9 1008.8 - 0.0
13/06:00pm 40.2 37.0 -0.3 8 20.6 ENE 6 19 3 10 1008.4 - 0.0
13/05:30pm 40.5 36.8 -0.1 8 20.8 ENE 9 17 5 9 1008.3 - 0.0
13/05:00pm 40.9 37.2 0.2 8 20.9 ESE 9 26 5 14 1008.4 - 0.0
13/04:30pm 40.8 36.0 0.1 8 20.9 ENE 15 24 8 13 1008.5 - 0.0
13/04:00pm 41.9 38.0 0.9 8 21.4 ESE 11 24 6 13 1008.8 - 0.0
13/03:30pm 41.1 37.5 0.3 8 21.1 ESE 9 19 5 10 1008.9 - 0.0
13/03:00pm 41.1 38.0 3.4 10 20.4 ENE 9 19 5 10 1009.6 - 0.0
13/02:30pm 40.4 37.7 2.9 10 20.1 ESE 6 13 3 7 1009.9 - 0.0
13/02:00pm 40.0 37.2 5.2 12 19.2 NNE 9 19 5 10 1010.4 - 0.0
13/01:30pm 39.4 37.6 7.0 14 18.3 SW 6 13 3 7 1011.1 - 0.0
13/01:00pm 39.1 37.7 9.6 17 17.3 SE 7 13 4 7 1011.9 - 0.0
13/12:30pm 38.6 37.8 10.9 19 16.5 NNE 6 15 3 8 1012.5 - 0.0
13/12:00pm 37.3 36.8 12.7 23 15.0 NW 7 26 4 14 1013.1 - 0.0
13/11:30am 36.0 36.6 15.2 29 13.1 NNW 6 11 3 6 1013.7 - 0.0
13/11:00am 35.1 37.2 18.2 36 11.0 W 4 15 2 8 1014.2 - 0.0
13/10:30am 33.2 35.3 19.3 44 9.2 WNW 7 13 4 7 1014.7 - 0.0
13/10:00am 31.9 34.2 19.5 47 8.2 W 6 11 3 6 1014.9 - 0.0
13/09:30am 31.4 34.0 20.0 50 7.5 WNW 6 13 3 7 1015.1 - 0.0
13/09:00am 29.9 33.9 21.3 60 5.8 N 2 6 1 3 1015.1 - 0.0
13/08:30am 27.8 32.0 21.8 70 4.0 SW 2 6 1 3 1014.9 - 0.0
13/08:00am 26.4 30.6 20.9 72 3.6 CALM 0 2 0 1 1014.7 - 0.0
13/07:30am 22.3 26.0 20.0 87 1.5 CALM 0 0 0 0 1014.3 - 0.0
13/07:00am 20.0 23.3 19.2 95 0.5 CALM 0 0 0 0 1013.9 - 0.0
13/06:30am 19.9 23.1 18.9 94 0.6 CALM 0 0 0 0 1013.4 - 0.0
13/06:00am 20.6 24.2 19.8 95 0.5 CALM 0 0 0 0 1013.0 - 0.0
13/05:30am 20.6 24.0 19.4 93 0.8 CALM 0 0 0 0 1012.8 - 0.0
13/05:00am 21.3 25.1 20.1 93 0.8 CALM 0 0 0 0 1012.6 - 0.0
13/04:30am 21.9 25.9 20.5 92 0.9 CALM 0 0 0 0 1012.4 - 0.0
13/04:00am 22.4 26.5 20.7 90 1.1 CALM 0 0 0 0 1012.2 - 0.0
13/03:30am 22.9 27.0 20.8 88 1.4 CALM 0 0 0 0 1012.1 - 0.0
13/03:00am 23.9 28.3 21.4 86 1.7 CALM 0 2 0 1 1011.9 - 0.0
13/02:30am 25.1 29.6 21.6 81 2.3 CALM 0 2 0 1 1011.8 - 0.0
13/02:00am 26.0 30.2 22.5 81 2.4 NNW 4 11 2 6 1012.0 - 0.0
13/01:30am 26.1 29.8 21.5 76 3.1 N 4 11 2 6 1012.3 - 0.0
13/01:00am 26.7 29.9 21.2 72 3.7 NNW 6 11 3 6 1012.6 - 0.0
13/12:30am 27.0 29.9 20.6 68 4.2 NNW 6 7 3 4 1012.4 - 0.0
13/12:00am 27.2 30.0 20.5 67 4.4 NNW 6 11 3 6 1012.6 - 0.0
 
Date/Time
CST
Temp
°C
App
Temp
°C
Dew
Point
°C
Rel
Hum
%
Delta-T
°C
Wind Press
QNH
hPa
Press
MSL
hPa
Rain since
9am
mm
Dir  Spd
km/h
Gust
km/h
Spd
kts
Gust
kts
12/11:30pm 27.8 30.3 19.8 61 5.2 NNW 6 11 3 6 1012.8 - 0.0
12/11:00pm 28.2 30.2 19.2 58 5.8 NNW 7 9 4 5 1012.6 - 0.0
12/10:30pm 28.7 30.5 18.8 55 6.4 NNW 7 11 4 6 1012.4 - 0.0
12/10:00pm 29.0 30.4 18.7 53 6.6 NNW 9 13 5 7 1012.2 - 0.0
12/09:30pm 29.1 31.1 18.8 53 6.7 NNW 6 9 3 5 1011.9 - 0.0
12/09:00pm 30.0 31.0 16.4 44 8.5 N 6 9 3 5 1011.6 - 0.0
12/08:30pm 30.5 29.9 14.6 38 9.7 NNW 11 20 6 11 1011.1 - 0.0
12/08:00pm 31.1 30.0 14.3 36 10.2 NNW 13 26 7 14 1010.7 - 0.0
12/07:30pm 31.5 30.8 15.5 38 9.9 NW 13 24 7 13 1010.4 - 0.0
12/07:00pm 32.2 32.9 18.0 42 9.2 NW 11 24 6 13 1009.7 - 0.0
12/06:30pm 33.6 33.1 16.9 37 10.7 WNW 15 28 8 15 1009.0 - 0.0
12/06:00pm 37.7 37.8 15.5 27 14.1 NW 9 24 5 13 1008.1 - 0.0
12/05:30pm 40.4 35.9 -0.2 8 20.7 ENE 13 20 7 11 1007.6 - 0.0
12/05:00pm 40.5 36.4 -0.1 8 20.7 ENE 11 24 6 13 1007.4 - 0.0
12/04:30pm 40.4 35.9 -0.2 8 20.7 E 13 22 7 12 1007.5 - 0.0
12/04:00pm 40.3 36.1 1.4 9 20.3 NE 13 28 7 15 1007.7 - 0.0
12/03:30pm 40.7 36.1 1.7 9 20.5 ENE 15 28 8 15 1008.0 - 0.0
12/03:00pm 40.4 36.5 1.4 9 20.4 NNE 11 26 6 14 1008.3 - 0.0
12/02:30pm 40.3 36.7 2.8 10 20.0 ENE 11 26 6 14 1008.9 - 0.0
12/02:00pm 40.0 35.7 1.1 9 20.2 NE 13 24 7 13 1009.5 - 0.0
12/01:30pm 39.2 35.4 2.0 10 19.5 NE 11 20 6 11 1010.3 - 0.0
12/01:00pm 38.8 35.2 0.3 9 19.6 E 9 22 5 12 1011.1 - 0.0
12/12:30pm 37.7 33.8 3.4 12 18.2 NE 13 24 7 13 1011.8 - 0.0
12/12:00pm 36.8 34.8 8.6 18 16.1 NE 9 13 5 7 1012.5 - 0.0
12/11:30am 35.4 35.2 13.0 26 13.6 NNE 6 13 3 7 1013.0 - 0.0
12/11:00am 33.7 34.6 16.1 34 11.1 NW 6 11 3 6 1013.5 - 0.0
12/10:30am 31.9 33.4 16.6 39 9.7 N 4 9 2 5 1013.8 - 0.0
12/10:00am 30.8 32.6 18.2 47 8.1 NNE 6 9 3 5 1014.3 - 0.0
12/09:30am 29.1 32.1 20.0 58 6.0 NNE 4 11 2 6 1014.5 - 0.0
12/09:00am 27.6 30.4 20.9 67 4.4 WNW 7 11 4 6 1014.5 - 0.0
12/08:30am 26.7 29.9 21.7 74 3.3 NW 7 17 4 9 1014.5 - 0.0
12/08:00am 25.0 28.1 18.7 68 4.0 CALM 0 2 0 1 1014.4 - 0.0
12/07:30am 20.2 20.5 10.9 55 5.1 CALM 0 0 0 0 1014.1 - 0.0
12/07:00am 16.4 16.0 8.4 59 4.1 CALM 0 0 0 0 1013.7 - 0.0
12/06:30am 15.5 14.9 7.3 58 4.1 CALM 0 0 0 0 1013.5 - 0.0
12/06:00am 15.6 15.0 7.6 59 4.0 CALM 0 0 0 0 1013.1 - 0.0
12/05:30am 15.7 15.0 7.0 56 4.3 CALM 0 0 0 0 1012.7 - 0.0
12/05:00am 16.2 15.6 7.2 55 4.5 CALM 0 0 0 0 1012.6 - 0.0
12/04:30am 16.4 15.5 6.0 50 5.1 CALM 0 0 0 0 1012.2 - 0.0
12/04:00am 16.9 15.9 5.8 48 5.4 CALM 0 0 0 0 1011.9 - 0.0
12/03:30am 17.3 16.9 8.2 55 4.7 CALM 0 0 0 0 1011.8 - 0.0
12/03:00am 17.5 16.3 4.8 43 6.1 CALM 0 0 0 0 1011.7 - 0.0
12/02:30am 17.9 16.9 5.5 44 6.0 CALM 0 0 0 0 1011.8 - 0.0
12/02:00am 18.6 18.2 8.3 51 5.3 CALM 0 0 0 0 1011.8 - 0.0
12/01:30am 19.2 19.9 12.2 64 3.9 CALM 0 0 0 0 1011.9 - 0.0
12/01:00am 19.3 18.9 8.3 49 5.7 CALM 0 0 0 0 1012.1 - 0.0
12/12:30am 20.0 20.5 11.5 58 4.7 CALM 0 2 0 1 1012.1 - 0.0
12/12:00am 19.7 17.8 2.6 32 8.0 NW 2 6 1 3 1012.3 - 0.0
 
Date/Time
CST
Temp
°C
App
Temp
°C
Dew
Point
°C
Rel
Hum
%
Delta-T
°C
Wind Press
QNH
hPa
Press
MSL
hPa
Rain since
9am
mm
Dir  Spd
km/h
Gust
km/h
Spd
kts
Gust
kts
11/11:30pm 19.5 17.1 -3.4 21 9.4 CALM 0 0 0 0 1012.4 - 0.0
11/11:00pm 20.0 17.4 -5.0 18 10.0 CALM 0 0 0 0 1012.3 - 0.0
11/10:30pm 20.7 18.1 -5.2 17 10.4 CALM 0 0 0 0 1012.1 - 0.0
11/10:00pm 22.1 19.2 -7.6 13 11.5 CALM 0 0 0 0 1012.0 - 0.0
11/09:30pm 23.5 20.6 -7.5 12 12.2 CALM 0 0 0 0 1011.7 - 0.0
11/09:00pm 24.6 21.7 -7.8 11 12.9 CALM 0 0 0 0 1011.3 - 0.0
11/08:30pm 26.0 23.0 -9.3 9 13.8 CALM 0 0 0 0 1011.2 - 0.0
11/08:00pm 27.9 24.9 -9.4 8 14.9 CALM 0 0 0 0 1010.9 - 0.0
11/07:30pm 30.0 26.8 -11.4 6 16.3 CALM 0 0 0 0 1010.6 - 0.0
11/07:00pm 33.5 29.8 -14.0 4 18.5 E 2 4 1 2 1010.1 - 0.0
11/06:30pm 37.3 32.8 -14.9 3 20.8 ESE 6 13 3 7 1009.7 - 0.0
11/06:00pm 38.5 32.9 -19.0 2 21.8 ESE 11 20 6 11 1009.4 - 0.0
11/05:30pm 39.1 33.5 -18.6 2 22.1 ESE 11 17 6 9 1009.0 - 0.0
11/05:00pm 39.8 34.6 -18.2 2 22.5 E 9 15 5 8 1008.9 - 0.0
11/04:30pm 40.3 34.7 -17.9 2 22.8 ESE 11 20 6 11 1009.1 - 0.0
11/04:00pm 39.7 34.5 -18.2 2 22.4 ESE 9 22 5 12 1009.5 - 0.0
11/03:30pm 40.1 34.9 -18.0 2 22.7 SSE 9 20 5 11 1009.8 - 0.0

Other formats

Comma delimited format used in spreadsheet applications
http://www.bom.gov.au/fwo/IDD60801/IDD60801.94222.axf

JavaScript Object Notation format (JSON) in row-major order
http://www.bom.gov.au/fwo/IDD60801/IDD60801.94222.json

Data quality

Most of these data are generated automatically and are frequently updated. Quality checks on data are not normally performed. It is possible for incorrect values to appear. Refer to information at About Latest Weather Observations and please check the disclaimer before using these data.